Time;durP1;ratioP1;P1;durP2;ratioP2;P2;SDS_P1;SDS_P2;PMS_P1;PMS_P2;Temp;Humidity;BMP_temperature;BMP_pressure;BME280_temperature;BME280_humidity;BME280_pressure;Samples;Min_cycle;Max_cycle;Signal;HPM_P1;HPM_P2
2022/06/12 00:00:08;;;;;;;7.10;2.80;;;;;;;;;;5059414;28;20935;-43
2022/06/12 00:02:34;;;;;;;6.13;2.63;;;;;;;;;;5059373;28;20185;-42
2022/06/12 00:05:00;;;;;;;4.57;2.60;;;;;;;;;;5061226;28;20185;-42
2022/06/12 00:07:26;;;;;;;5.10;2.50;;;;;;;;;;5062431;28;20521;-43
2022/06/12 00:09:52;;;;;;;2.70;2.50;;;;;;;;;;5061043;28;20243;-42
2022/06/12 00:12:19;;;;;;;3.60;2.30;;;;;;;;;;5056841;28;20217;-42
2022/06/12 00:14:45;;;;;;;4.93;2.23;;;;;;;;;;5058447;28;20191;-43
2022/06/12 00:17:11;;;;;;;5.00;2.30;;;;;;;;;;5062282;28;20189;-42
2022/06/12 00:19:40;;;;;;;2.40;2.20;;;;;;;;;;5060792;28;20167;-42
2022/06/12 00:22:06;;;;;;;2.20;2.00;;;;;;;;;;5056919;28;20174;-43
2022/06/12 00:24:33;;;;;;;4.77;2.50;;;;;;;;;;5060157;28;20190;-43
2022/06/12 00:26:59;;;;;;;3.80;2.27;;;;;;;;;;5059475;28;20182;-42
2022/06/12 00:29:25;;;;;;;4.57;2.30;;;;;;;;;;5058725;28;20211;-42
2022/06/12 00:31:54;;;;;;;4.87;2.70;;;;;;;;;;5060519;28;20495;-42
2022/06/12 00:34:21;;;;;;;4.33;2.67;;;;;;;;;;5065149;28;20174;-43
2022/06/12 00:36:47;;;;;;;6.03;2.43;;;;;;;;;;5056145;28;21053;-42
2022/06/12 00:39:15;;;;;;;3.37;2.07;;;;;;;;;;5059071;28;20171;-42
2022/06/12 00:41:42;;;;;;;4.23;2.60;;;;;;;;;;5062455;28;20944;-42
2022/06/12 00:44:08;;;;;;;3.40;2.30;;;;;;;;;;5058100;28;21169;-42
2022/06/12 00:46:37;;;;;;;3.80;2.37;;;;;;;;;;5057802;28;20289;-42
2022/06/12 00:49:08;;;;;;;4.63;2.30;;;;;;;;;;5061718;28;20312;-42
2022/06/12 00:51:34;;;;;;;4.17;2.60;;;;;;;;;;5061255;28;20257;-42
2022/06/12 00:54:00;;;;;;;4.93;2.60;;;;;;;;;;5055728;28;20260;-42
2022/06/12 00:56:30;;;;;;;3.60;2.30;;;;;;;;;;5063054;28;20832;-42
2022/06/12 00:58:59;;;;;;;3.27;2.20;;;;;;;;;;5053474;28;20175;-42
2022/06/12 01:01:30;;;;;;;2.50;2.30;;;;;;;;;;5056448;28;20190;-41
2022/06/12 01:06:44;;;;;;;2.97;2.20;;;;;;;;;;5056614;28;20298;-40
2022/06/12 01:09:15;;;;;;;3.33;2.30;;;;;;;;;;5059118;28;20223;-41
2022/06/12 01:11:44;;;;;;;2.60;2.30;;;;;;;;;;5052700;28;20206;-42
2022/06/12 01:14:11;;;;;;;2.70;2.33;;;;;;;;;;5055580;28;20212;-42
2022/06/12 01:16:44;;;;;;;3.10;2.43;;;;;;;;;;5051693;28;20185;-42
2022/06/12 01:19:12;;;;;;;2.60;2.17;;;;;;;;;;5060799;28;20817;-42
2022/06/12 01:21:48;;;;;;;2.70;2.50;;;;;;;;;;5056796;28;20448;-42
2022/06/12 01:24:14;;;;;;;2.90;2.47;;;;;;;;;;5050811;28;20178;-44
2022/06/12 01:26:59;;;;;;;2.63;2.40;;;;;;;;;;5051008;28;20338;-42
2022/06/12 01:29:38;;;;;;;3.70;2.60;;;;;;;;;;5052011;28;20610;-42
2022/06/12 01:32:09;;;;;;;4.53;2.27;;;;;;;;;;5047576;28;20937;-42
2022/06/12 01:35:01;;;;;;;6.10;2.97;;;;;;;;;;5058560;28;20740;-42
2022/06/12 01:37:37;;;;;;;3.90;3.00;;;;;;;;;;5052177;28;20190;-42
2022/06/12 01:40:06;;;;;;;4.13;3.27;;;;;;;;;;5057898;28;20322;-41
2022/06/12 01:42:32;;;;;;;5.00;3.20;;;;;;;;;;5052969;28;20880;-42
2022/06/12 01:44:58;;;;;;;4.17;3.20;;;;;;;;;;5054808;28;20676;-41
2022/06/12 01:47:24;;;;;;;4.83;3.37;;;;;;;;;;5052239;28;20749;-41
2022/06/12 01:50:23;;;;;;;6.17;3.70;;;;;;;;;;5054029;28;20942;-41
2022/06/12 01:52:55;;;;;;;6.70;3.73;;;;;;;;;;5009714;28;20360;-42
2022/06/12 01:55:31;;;;;;;6.07;3.60;;;;;;;;;;5054357;28;20185;-42
2022/06/12 01:57:57;;;;;;;4.87;3.37;;;;;;;;;;5049085;28;20748;-42
2022/06/12 02:00:24;;;;;;;6.60;3.83;;;;;;;;;;5052457;28;20170;-42
2022/06/12 02:02:54;;;;;;;5.67;3.77;;;;;;;;;;5053988;28;20590;-42
2022/06/12 02:05:26;;;;;;;5.30;3.43;;;;;;;;;;5056281;28;20610;-41
2022/06/12 02:08:00;;;;;;;7.17;3.50;;;;;;;;;;5051216;28;21094;-40
2022/06/12 02:10:27;;;;;;;4.03;3.40;;;;;;;;;;5061338;28;20874;-42
2022/06/12 02:13:16;;;;;;;3.47;3.17;;;;;;;;;;5055791;28;20838;-42
2022/06/12 02:15:45;;;;;;;5.60;3.00;;;;;;;;;;5041167;28;20996;-42
2022/06/12 02:18:17;;;;;;;3.40;3.00;;;;;;;;;;5052530;28;20732;-42
2022/06/12 02:20:46;;;;;;;4.90;2.90;;;;;;;;;;5058863;28;20353;-42
2022/06/12 02:23:15;;;;;;;3.83;3.00;;;;;;;;;;5055384;28;20187;-41
2022/06/12 02:25:43;;;;;;;2.77;2.40;;;;;;;;;;5056623;28;20193;-42
2022/06/12 02:28:11;;;;;;;4.33;2.60;;;;;;;;;;5057604;28;20742;-43
2022/06/12 02:30:42;;;;;;;3.63;3.20;;;;;;;;;;5055771;28;20205;-41
2022/06/12 02:33:21;;;;;;;3.00;2.70;;;;;;;;;;5054067;28;20174;-42
2022/06/12 02:36:02;;;;;;;4.23;2.80;;;;;;;;;;5059294;28;20178;-42
2022/06/12 02:38:30;;;;;;;5.40;2.90;;;;;;;;;;5054874;28;20182;-42
2022/06/12 02:40:58;;;;;;;3.07;2.70;;;;;;;;;;5056583;28;20190;-42
2022/06/12 02:43:27;;;;;;;4.77;2.90;;;;;;;;;;5056117;28;20742;-41
2022/06/12 02:46:05;;;;;;;4.57;3.20;;;;;;;;;;5056439;28;21062;-43
2022/06/12 02:48:31;;;;;;;3.37;2.67;;;;;;;;;;5054653;28;20181;-43
2022/06/12 02:51:18;;;;;;;3.17;2.67;;;;;;;;;;5055374;28;20199;-42
2022/06/12 02:53:51;;;;;;;3.17;2.63;;;;;;;;;;5054643;28;20177;-42
2022/06/12 02:56:33;;;;;;;4.07;2.50;;;;;;;;;;5056316;28;20445;-44
2022/06/12 02:59:20;;;;;;;3.17;2.70;;;;;;;;;;5051981;28;20270;-40
2022/06/12 03:01:52;;;;;;;4.60;2.90;;;;;;;;;;5057893;28;20441;-41
2022/06/12 03:04:18;;;;;;;3.07;2.77;;;;;;;;;;5051542;28;20315;-42
2022/06/12 03:06:44;;;;;;;4.07;2.60;;;;;;;;;;5058269;28;20562;-42
2022/06/12 03:09:10;;;;;;;2.60;2.27;;;;;;;;;;5056073;28;20676;-41
2022/06/12 03:11:39;;;;;;;3.57;2.50;;;;;;;;;;5054166;28;20190;-42
2022/06/12 03:14:10;;;;;;;3.90;2.50;;;;;;;;;;5052966;28;20183;-41
2022/06/12 03:16:39;;;;;;;3.53;2.43;;;;;;;;;;5056302;28;20246;-42
2022/06/12 03:19:06;;;;;;;2.97;2.50;;;;;;;;;;5053000;28;20217;-42
2022/06/12 03:21:44;;;;;;;3.97;2.77;;;;;;;;;;5051072;28;20408;-42
2022/06/12 03:24:20;;;;;;;3.00;2.57;;;;;;;;;;5053996;28;20186;-42
2022/06/12 03:26:49;;;;;;;3.93;2.13;;;;;;;;;;5043643;28;21054;-42
2022/06/12 03:29:21;;;;;;;4.67;2.50;;;;;;;;;;5046317;28;20838;-43
2022/06/12 03:31:53;;;;;;;3.87;2.77;;;;;;;;;;5048412;28;20529;-43
2022/06/12 03:34:39;;;;;;;4.17;2.90;;;;;;;;;;5046359;28;20201;-43
2022/06/12 03:37:14;;;;;;;4.97;2.87;;;;;;;;;;5029268;28;20187;-43
2022/06/12 03:39:46;;;;;;;3.80;3.00;;;;;;;;;;5049073;28;21214;-43
2022/06/12 03:42:20;;;;;;;3.70;2.97;;;;;;;;;;5052929;28;20186;-43
2022/06/12 03:45:00;;;;;;;4.70;2.70;;;;;;;;;;5049972;28;20189;-42
2022/06/12 03:47:35;;;;;;;4.73;3.10;;;;;;;;;;5048964;28;20181;-41
2022/06/12 03:50:14;;;;;;;7.17;3.60;;;;;;;;;;5048444;28;20969;-42
2022/06/12 03:52:40;;;;;;;5.60;3.10;;;;;;;;;;5052825;28;20274;-42
2022/06/12 03:55:06;;;;;;;7.23;3.90;;;;;;;;;;5051467;28;20223;-42
2022/06/12 03:57:52;;;;;;;5.97;3.77;;;;;;;;;;5047847;28;20199;-41
2022/06/12 04:00:21;;;;;;;6.20;3.07;;;;;;;;;;5049617;28;21005;-42
2022/06/12 04:02:49;;;;;;;4.93;3.30;;;;;;;;;;5046071;28;20251;-42
2022/06/12 04:05:21;;;;;;;6.03;3.40;;;;;;;;;;5049710;28;20383;-43
2022/06/12 04:07:49;;;;;;;5.53;3.60;;;;;;;;;;5052850;28;20722;-43
2022/06/12 04:10:17;;;;;;;7.20;3.43;;;;;;;;;;5052263;28;20262;-41
2022/06/12 04:12:44;;;;;;;4.63;3.13;;;;;;;;;;5046450;28;20267;-43
2022/06/12 04:15:18;;;;;;;6.37;3.40;;;;;;;;;;5048807;28;20293;-43
2022/06/12 04:17:44;;;;;;;7.80;3.03;;;;;;;;;;5051133;28;20279;-43
2022/06/12 04:20:23;;;;;;;5.13;2.50;;;;;;;;;;5050717;28;20658;-43
2022/06/12 04:22:49;;;;;;;4.10;2.90;;;;;;;;;;5052497;28;20573;-43
2022/06/12 04:25:27;;;;;;;3.53;2.90;;;;;;;;;;5058246;28;20194;-43
2022/06/12 04:27:54;;;;;;;3.17;2.77;;;;;;;;;;5049303;28;20639;-43
2022/06/12 04:30:20;;;;;;;4.37;2.80;;;;;;;;;;5048295;28;20195;-42
2022/06/12 04:32:46;;;;;;;3.00;2.67;;;;;;;;;;5067326;27;20603;-42
2022/06/12 04:35:12;;;;;;;4.70;3.20;;;;;;;;;;5055317;28;21107;-43
2022/06/12 04:37:38;;;;;;;4.93;2.90;;;;;;;;;;5052524;28;20533;-42
2022/06/12 04:40:06;;;;;;;5.97;3.10;;;;;;;;;;5055999;28;20634;-43
2022/06/12 04:42:33;;;;;;;6.03;3.43;;;;;;;;;;5050960;28;20705;-43
2022/06/12 04:45:00;;;;;;;10.73;4.07;;;;;;;;;;5054213;28;20260;-42
2022/06/12 04:47:28;;;;;;;4.77;3.60;;;;;;;;;;5050924;28;20174;-43
2022/06/12 04:49:54;;;;;;;5.60;3.57;;;;;;;;;;5052197;28;20298;-42
2022/06/12 04:52:23;;;;;;;6.63;3.70;;;;;;;;;;5045967;28;21028;-41
2022/06/12 04:54:49;;;;;;;7.63;3.80;;;;;;;;;;5054028;28;20937;-43
2022/06/12 04:57:17;;;;;;;5.57;3.83;;;;;;;;;;5047071;28;21469;-42
2022/06/12 04:59:43;;;;;;;4.17;3.40;;;;;;;;;;5049350;28;20625;-43
2022/06/12 05:02:10;;;;;;;4.13;2.90;;;;;;;;;;5052417;28;21090;-43
2022/06/12 05:04:36;;;;;;;4.17;3.33;;;;;;;;;;5053296;28;20709;-43
2022/06/12 05:07:03;;;;;;;4.73;3.23;;;;;;;;;;5056118;28;20182;-42
2022/06/12 05:09:31;;;;;;;5.00;3.23;;;;;;;;;;5056963;28;20265;-43
2022/06/12 05:11:57;;;;;;;5.93;3.10;;;;;;;;;;5056761;28;20194;-43
2022/06/12 05:14:24;;;;;;;3.63;2.93;;;;;;;;;;5055351;28;20182;-43
2022/06/12 05:17:04;;;;;;;5.57;3.40;;;;;;;;;;5051582;28;20184;-44
2022/06/12 05:19:32;;;;;;;4.83;2.90;;;;;;;;;;5047737;28;20589;-44
2022/06/12 05:21:58;;;;;;;6.07;3.40;;;;;;;;;;5050877;28;20355;-44
2022/06/12 05:24:24;;;;;;;6.23;3.70;;;;;;;;;;5052762;28;20167;-42
2022/06/12 05:26:51;;;;;;;7.80;3.23;;;;;;;;;;5063553;28;20213;-44
2022/06/12 05:29:23;;;;;;;6.27;3.10;;;;;;;;;;5049315;28;20190;-43
2022/06/12 05:31:49;;;;;;;4.97;3.93;;;;;;;;;;5052702;28;20230;-43
2022/06/12 05:34:16;;;;;;;5.47;3.60;;;;;;;;;;5057300;28;20170;-43
2022/06/12 05:36:43;;;;;;;5.13;3.60;;;;;;;;;;5058075;28;20720;-42
2022/06/12 05:39:09;;;;;;;6.30;3.83;;;;;;;;;;5050715;28;20172;-43
2022/06/12 05:41:35;;;;;;;6.83;4.17;;;;;;;;;;5052599;28;20384;-43
2022/06/12 05:44:01;;;;;;;7.13;4.17;;;;;;;;;;5058042;28;20462;-42
2022/06/12 05:46:27;;;;;;;5.37;3.87;;;;;;;;;;5054163;28;20267;-43
2022/06/12 05:48:53;;;;;;;8.33;4.20;;;;;;;;;;5057703;28;20174;-42
2022/06/12 05:51:20;;;;;;;6.00;3.60;;;;;;;;;;5057607;28;20283;-43
2022/06/12 05:53:46;;;;;;;5.03;3.20;;;;;;;;;;5056670;28;20281;-43
2022/06/12 05:56:14;;;;;;;5.70;3.53;;;;;;;;;;5049268;28;20171;-43
2022/06/12 05:58:40;;;;;;;6.93;3.60;;;;;;;;;;5050881;28;21163;-43
2022/06/12 06:01:07;;;;;;;6.80;3.67;;;;;;;;;;5046553;28;20595;-42
2022/06/12 06:03:34;;;;;;;5.07;2.90;;;;;;;;;;5047321;28;20175;-43
2022/06/12 06:06:00;;;;;;;5.23;3.40;;;;;;;;;;5047645;28;20181;-43
2022/06/12 06:08:27;;;;;;;4.93;3.13;;;;;;;;;;5048581;28;20727;-43
2022/06/12 06:10:53;;;;;;;4.37;3.20;;;;;;;;;;5049901;28;20196;-43
2022/06/12 06:13:20;;;;;;;4.43;3.20;;;;;;;;;;5047608;28;20178;-44
2022/06/12 06:15:47;;;;;;;3.03;2.60;;;;;;;;;;5047793;28;20191;-44
2022/06/12 06:18:13;;;;;;;5.23;2.97;;;;;;;;;;5050332;28;20177;-44
2022/06/12 06:20:40;;;;;;;4.87;3.17;;;;;;;;;;5047436;28;20175;-44
2022/06/12 06:23:07;;;;;;;5.53;3.20;;;;;;;;;;5046925;28;20175;-43
2022/06/12 06:25:34;;;;;;;5.07;2.97;;;;;;;;;;5051420;28;20167;-44
2022/06/12 06:28:01;;;;;;;3.67;2.80;;;;;;;;;;5050204;28;20178;-44
2022/06/12 06:30:28;;;;;;;7.03;3.00;;;;;;;;;;5046202;28;20281;-42
2022/06/12 06:32:54;;;;;;;2.60;2.40;;;;;;;;;;5051545;28;20734;-42
2022/06/12 06:35:21;;;;;;;3.00;2.57;;;;;;;;;;5052203;28;20199;-42
2022/06/12 06:37:48;;;;;;;4.43;2.97;;;;;;;;;;5046451;28;20182;-42
2022/06/12 06:40:14;;;;;;;5.83;2.70;;;;;;;;;;5044488;28;20714;-42
2022/06/12 06:42:40;;;;;;;6.10;3.30;;;;;;;;;;5049831;28;20360;-42
2022/06/12 06:47:52;;;;;;;8.30;3.00;;;;;;;;;;5049352;28;20605;-42
2022/06/12 06:50:19;;;;;;;4.23;2.90;;;;;;;;;;5051936;28;20718;-42
2022/06/12 06:52:45;;;;;;;4.27;2.67;;;;;;;;;;5049689;28;20198;-43
2022/06/12 06:55:11;;;;;;;3.20;2.77;;;;;;;;;;5049268;28;20457;-43
2022/06/12 06:57:39;;;;;;;5.10;2.90;;;;;;;;;;5046989;28;20444;-43
2022/06/12 07:00:06;;;;;;;6.50;3.10;;;;;;;;;;5052506;28;20630;-42
2022/06/12 07:02:32;;;;;;;4.80;2.83;;;;;;;;;;5044271;28;20685;-42
2022/06/12 07:04:58;;;;;;;3.97;3.10;;;;;;;;;;5048778;28;20183;-40
2022/06/12 07:07:24;;;;;;;4.47;2.90;;;;;;;;;;5051392;28;20228;-41
2022/06/12 07:09:51;;;;;;;5.50;2.80;;;;;;;;;;5047358;28;20341;-41
2022/06/12 07:12:17;;;;;;;5.17;2.93;;;;;;;;;;5045347;28;20701;-42
2022/06/12 07:14:43;;;;;;;4.97;2.57;;;;;;;;;;5046611;28;20189;-43
2022/06/12 07:17:11;;;;;;;4.50;2.47;;;;;;;;;;5050254;28;20650;-42
2022/06/12 07:19:38;;;;;;;6.43;3.00;;;;;;;;;;5050605;28;20186;-42
2022/06/12 07:22:05;;;;;;;4.00;2.70;;;;;;;;;;5046981;28;20939;-42
2022/06/12 07:24:32;;;;;;;4.63;2.63;;;;;;;;;;5051865;28;20287;-43
2022/06/12 07:26:58;;;;;;;5.80;2.63;;;;;;;;;;5059487;28;20255;-43
2022/06/12 07:29:24;;;;;;;3.93;2.80;;;;;;;;;;5050896;28;20664;-43
2022/06/12 07:31:51;;;;;;;5.93;2.67;;;;;;;;;;5053033;28;20335;-43
2022/06/12 07:34:17;;;;;;;3.57;2.53;;;;;;;;;;5049562;28;20693;-43
2022/06/12 07:36:45;;;;;;;3.90;2.57;;;;;;;;;;5049487;28;20567;-43
2022/06/12 07:39:13;;;;;;;4.03;2.63;;;;;;;;;;5048046;28;20186;-44
2022/06/12 07:41:39;;;;;;;4.60;2.63;;;;;;;;;;5045656;28;20611;-43
2022/06/12 07:44:06;;;;;;;4.10;2.83;;;;;;;;;;5049119;28;20175;-44
2022/06/12 07:46:33;;;;;;;5.27;2.90;;;;;;;;;;5049283;28;20174;-43
2022/06/12 07:48:59;;;;;;;3.67;2.67;;;;;;;;;;5046152;28;20191;-42
2022/06/12 07:51:25;;;;;;;6.07;2.80;;;;;;;;;;5049109;28;20246;-42
2022/06/12 07:53:52;;;;;;;5.23;3.00;;;;;;;;;;5047692;28;20172;-43
2022/06/12 07:56:19;;;;;;;4.77;3.10;;;;;;;;;;5052387;28;20797;-43
2022/06/12 07:58:45;;;;;;;2.53;2.33;;;;;;;;;;5052757;28;20237;-43
2022/06/12 08:01:15;;;;;;;3.60;2.77;;;;;;;;;;5055297;28;20215;-42
2022/06/12 08:03:41;;;;;;;6.17;2.60;;;;;;;;;;5047539;28;20170;-42
2022/06/12 08:06:08;;;;;;;3.47;2.37;;;;;;;;;;5045179;28;20180;-43
2022/06/12 08:08:34;;;;;;;4.07;1.77;;;;;;;;;;5051186;28;20264;-43
2022/06/12 08:11:01;;;;;;;3.67;2.00;;;;;;;;;;5048717;28;20199;-42
2022/06/12 08:13:28;;;;;;;3.33;1.97;;;;;;;;;;5044244;28;20248;-42
2022/06/12 08:15:54;;;;;;;3.10;2.00;;;;;;;;;;5050741;28;20194;-43
2022/06/12 08:18:21;;;;;;;2.73;2.00;;;;;;;;;;5049108;28;20176;-43
2022/06/12 08:20:49;;;;;;;3.03;2.00;;;;;;;;;;5041841;28;20461;-43
2022/06/12 08:23:28;;;;;;;3.67;1.63;;;;;;;;;;5050841;28;20177;-43
2022/06/12 08:26:04;;;;;;;2.60;1.50;;;;;;;;;;5042234;28;20183;-42
2022/06/12 08:28:31;;;;;;;3.97;1.80;;;;;;;;;;5047905;28;20178;-43
2022/06/12 08:30:58;;;;;;;3.87;2.00;;;;;;;;;;5047165;28;20208;-44
2022/06/12 08:33:24;;;;;;;2.90;2.10;;;;;;;;;;5048722;28;20454;-44
2022/06/12 08:35:51;;;;;;;3.03;2.03;;;;;;;;;;5054834;28;20834;-43
2022/06/12 08:38:17;;;;;;;2.20;1.77;;;;;;;;;;5050204;28;20889;-44
2022/06/12 08:40:49;;;;;;;4.27;2.20;;;;;;;;;;5054336;28;20626;-43
2022/06/12 08:43:24;;;;;;;2.40;1.80;;;;;;;;;;5053961;28;20174;-43
2022/06/12 08:45:51;;;;;;;2.57;1.90;;;;;;;;;;5051439;28;20593;-43
2022/06/12 08:48:28;;;;;;;2.60;2.10;;;;;;;;;;5049147;28;20994;-43
2022/06/12 08:51:07;;;;;;;3.77;2.17;;;;;;;;;;5045837;28;20492;-43
2022/06/12 08:53:41;;;;;;;2.30;2.10;;;;;;;;;;5052506;28;20277;-43
2022/06/12 08:56:11;;;;;;;4.80;1.90;;;;;;;;;;5050141;28;20178;-43
2022/06/12 08:58:44;;;;;;;2.27;1.80;;;;;;;;;;5051119;28;20179;-43
2022/06/12 09:01:11;;;;;;;3.00;2.00;;;;;;;;;;5064863;27;20227;-43
2022/06/12 09:03:49;;;;;;;4.27;2.17;;;;;;;;;;5053516;28;20186;-43
2022/06/12 09:06:33;;;;;;;2.10;1.80;;;;;;;;;;5053386;28;20188;-44
2022/06/12 09:09:14;;;;;;;2.27;1.73;;;;;;;;;;5047449;28;21898;-43
2022/06/12 09:11:43;;;;;;;3.10;1.93;;;;;;;;;;5045938;28;20283;-43
2022/06/12 09:14:09;;;;;;;3.33;2.07;;;;;;;;;;5049466;28;20960;-43
2022/06/12 09:16:35;;;;;;;2.53;2.10;;;;;;;;;;5054768;28;20787;-43
2022/06/12 09:19:13;;;;;;;2.03;1.67;;;;;;;;;;5047585;28;20175;-43
2022/06/12 09:22:15;;;;;;;2.47;2.27;;;;;;;;;;5052387;28;20179;-43
2022/06/12 09:24:51;;;;;;;1.90;1.50;;;;;;;;;;5005104;28;20833;-43
2022/06/12 09:27:35;;;;;;;1.83;1.63;;;;;;;;;;5052738;28;20186;-43
2022/06/12 09:30:12;;;;;;;2.33;1.77;;;;;;;;;;5052684;28;21222;-44
2022/06/12 09:33:04;;;;;;;2.83;1.90;;;;;;;;;;5052811;28;20208;-44
2022/06/12 09:35:39;;;;;;;2.57;1.60;;;;;;;;;;5055773;28;22691;-44
2022/06/12 09:38:21;;;;;;;2.67;1.90;;;;;;;;;;5054576;28;20195;-43
2022/06/12 09:40:53;;;;;;;2.70;1.70;;;;;;;;;;5048773;28;20174;-41
2022/06/12 09:43:28;;;;;;;3.20;1.50;;;;;;;;;;5052658;28;20186;-44
2022/06/12 09:45:59;;;;;;;2.80;1.70;;;;;;;;;;5053849;28;20167;-43
2022/06/12 09:48:31;;;;;;;2.70;1.70;;;;;;;;;;5052223;28;20171;-43
2022/06/12 09:51:05;;;;;;;5.40;1.70;;;;;;;;;;5046270;28;20202;-43
2022/06/12 09:53:50;;;;;;;4.90;1.80;;;;;;;;;;5051904;28;21234;-44
2022/06/12 09:56:39;;;;;;;2.83;1.60;;;;;;;;;;5051253;28;20175;-43
2022/06/12 09:59:05;;;;;;;2.30;1.50;;;;;;;;;;5048330;28;20986;-43
2022/06/12 10:01:35;;;;;;;2.63;1.60;;;;;;;;;;5052230;28;20178;-43
2022/06/12 10:04:19;;;;;;;4.37;2.00;;;;;;;;;;5053216;28;20180;-41
2022/06/12 10:06:58;;;;;;;1.50;1.37;;;;;;;;;;5052454;28;20595;-43
2022/06/12 10:09:29;;;;;;;2.57;1.50;;;;;;;;;;5054902;28;20167;-43
2022/06/12 10:11:58;;;;;;;2.63;1.70;;;;;;;;;;5058088;28;20194;-43
2022/06/12 10:14:33;;;;;;;5.50;1.60;;;;;;;;;;5050105;28;20187;-43
2022/06/12 10:17:18;;;;;;;2.03;1.40;;;;;;;;;;5050557;28;20278;-44
2022/06/12 10:19:45;;;;;;;2.23;1.70;;;;;;;;;;5054892;28;20179;-44
2022/06/12 10:22:22;;;;;;;2.17;1.50;;;;;;;;;;5054310;28;20179;-44
2022/06/12 10:24:49;;;;;;;3.47;1.93;;;;;;;;;;5052943;28;20182;-44
2022/06/12 10:27:16;;;;;;;2.47;1.50;;;;;;;;;;5049943;28;20233;-44
2022/06/12 10:29:48;;;;;;;1.70;1.60;;;;;;;;;;5049621;28;20356;-43
2022/06/12 10:32:16;;;;;;;3.07;1.40;;;;;;;;;;5052086;28;20339;-44
2022/06/12 10:34:42;;;;;;;3.30;1.70;;;;;;;;;;5051394;28;20670;-44
2022/06/12 10:37:13;;;;;;;1.80;1.57;;;;;;;;;;5054019;28;20663;-43
2022/06/12 10:39:40;;;;;;;1.70;1.60;;;;;;;;;;5050869;28;20287;-44
2022/06/12 10:42:08;;;;;;;2.93;1.50;;;;;;;;;;5052928;28;20229;-44
2022/06/12 10:44:37;;;;;;;3.63;1.60;;;;;;;;;;5052324;28;20653;-44
2022/06/12 10:47:20;;;;;;;1.93;1.80;;;;;;;;;;5053963;28;20180;-44
2022/06/12 10:49:46;;;;;;;3.00;1.40;;;;;;;;;;5051410;28;20210;-44
2022/06/12 10:52:22;;;;;;;2.10;1.60;;;;;;;;;;5048016;28;20793;-42
2022/06/12 10:54:52;;;;;;;1.93;1.70;;;;;;;;;;5044377;28;20214;-44
2022/06/12 10:57:30;;;;;;;4.73;1.70;;;;;;;;;;5054181;28;20178;-44
2022/06/12 11:00:09;;;;;;;1.97;1.63;;;;;;;;;;5049881;28;20187;-43
2022/06/12 11:02:35;;;;;;;2.10;1.60;;;;;;;;;;5050481;28;20174;-43
2022/06/12 11:05:13;;;;;;;3.30;1.57;;;;;;;;;;5054040;28;20213;-44
2022/06/12 11:07:50;;;;;;;1.70;1.60;;;;;;;;;;5054523;28;20904;-44
2022/06/12 11:10:27;;;;;;;2.70;1.63;;;;;;;;;;5056443;28;20259;-44
2022/06/12 11:13:01;;;;;;;3.33;1.70;;;;;;;;;;5054987;28;20201;-44
2022/06/12 11:15:33;;;;;;;4.27;2.13;;;;;;;;;;5055754;28;20232;-44
2022/06/12 11:17:59;;;;;;;4.27;2.37;;;;;;;;;;5057497;28;20179;-44
2022/06/12 11:20:31;;;;;;;5.60;3.00;;;;;;;;;;5055781;28;20239;-43
2022/06/12 11:23:15;;;;;;;2.80;1.60;;;;;;;;;;5057750;28;20793;-44
2022/06/12 11:25:55;;;;;;;3.20;1.77;;;;;;;;;;5059179;28;20186;-44
2022/06/12 11:28:36;;;;;;;3.93;1.90;;;;;;;;;;5055644;28;20290;-44
2022/06/12 11:31:02;;;;;;;4.33;1.87;;;;;;;;;;5060557;28;20275;-44
2022/06/12 11:33:34;;;;;;;3.37;1.80;;;;;;;;;;5064036;28;20174;-44
2022/06/12 11:36:12;;;;;;;2.37;1.70;;;;;;;;;;5060192;28;21083;-44
2022/06/12 11:38:45;;;;;;;3.37;1.67;;;;;;;;;;5065174;28;20501;-44
2022/06/12 11:41:29;;;;;;;1.80;1.70;;;;;;;;;;5055274;28;20256;-44
2022/06/12 11:44:04;;;;;;;3.33;1.60;;;;;;;;;;5063040;28;21026;-44
2022/06/12 11:46:30;;;;;;;3.53;1.83;;;;;;;;;;5062033;28;20186;-44
2022/06/12 11:49:12;;;;;;;3.67;1.90;;;;;;;;;;5061097;28;20236;-44
2022/06/12 11:51:57;;;;;;;2.73;1.67;;;;;;;;;;5060350;28;20646;-44
2022/06/12 11:54:31;;;;;;;1.80;1.50;;;;;;;;;;5052980;28;20509;-44
2022/06/12 11:57:03;;;;;;;1.87;1.60;;;;;;;;;;5054280;28;20181;-44
2022/06/12 11:59:48;;;;;;;2.60;1.80;;;;;;;;;;5052505;28;20599;-44
2022/06/12 12:02:28;;;;;;;5.53;2.00;;;;;;;;;;5047967;28;20253;-44
2022/06/12 12:04:54;;;;;;;3.43;2.00;;;;;;;;;;5051948;28;20653;-44
2022/06/12 12:07:39;;;;;;;1.70;1.60;;;;;;;;;;5062022;28;20464;-44
2022/06/12 12:10:18;;;;;;;3.73;1.80;;;;;;;;;;5072669;27;20457;-44
2022/06/12 12:12:46;;;;;;;1.77;1.60;;;;;;;;;;5053809;28;21572;-43
2022/06/12 12:15:21;;;;;;;2.43;1.93;;;;;;;;;;5056478;28;20641;-44
2022/06/12 12:17:48;;;;;;;1.87;1.77;;;;;;;;;;5055004;28;20805;-44
2022/06/12 12:20:16;;;;;;;2.77;1.73;;;;;;;;;;5053825;28;20177;-44
2022/06/12 12:22:55;;;;;;;3.27;1.80;;;;;;;;;;5048381;28;20858;-44
2022/06/12 12:25:27;;;;;;;2.00;1.80;;;;;;;;;;5056146;28;21130;-42
2022/06/12 12:27:55;;;;;;;1.60;1.50;;;;;;;;;;5053884;28;20642;-44
2022/06/12 12:30:24;;;;;;;2.97;1.60;;;;;;;;;;5057681;28;20418;-41
2022/06/12 12:32:53;;;;;;;2.40;1.40;;;;;;;;;;5058562;28;20191;-42
2022/06/12 12:43:46;;;;;;;2.00;1.60;;;;;;;;;;5050983;28;20668;-43
2022/06/12 12:46:13;;;;;;;3.77;1.90;;;;;;;;;;5051761;28;20564;-43
2022/06/12 12:48:47;;;;;;;1.83;1.67;;;;;;;;;;5052430;28;20344;-42
2022/06/12 12:51:30;;;;;;;3.47;1.63;;;;;;;;;;5049574;28;20208;-42
2022/06/12 12:54:14;;;;;;;2.17;1.60;;;;;;;;;;5046069;28;20564;-43
2022/06/12 12:56:51;;;;;;;2.30;1.67;;;;;;;;;;5049433;28;20182;-43
2022/06/12 12:59:17;;;;;;;3.43;1.77;;;;;;;;;;5049865;28;20625;-43
2022/06/12 13:01:45;;;;;;;1.83;1.60;;;;;;;;;;5048293;28;20179;-42
2022/06/12 13:04:15;;;;;;;3.17;1.83;;;;;;;;;;5048591;28;20265;-42
2022/06/12 13:06:53;;;;;;;2.57;1.60;;;;;;;;;;5048022;28;20190;-43
2022/06/12 13:09:22;;;;;;;2.37;1.47;;;;;;;;;;5051891;28;20261;-43
2022/06/12 13:12:01;;;;;;;3.27;1.60;;;;;;;;;;5052759;28;20570;-43
2022/06/12 13:14:39;;;;;;;2.10;1.73;;;;;;;;;;5053743;28;20189;-42
2022/06/12 13:17:12;;;;;;;2.70;1.53;;;;;;;;;;5052291;28;20971;-43
2022/06/12 13:19:38;;;;;;;2.73;1.30;;;;;;;;;;5054207;28;20209;-43
2022/06/12 13:22:20;;;;;;;3.47;1.70;;;;;;;;;;5050755;28;20202;-43
2022/06/12 13:24:49;;;;;;;4.50;1.60;;;;;;;;;;5054261;28;20535;-43
2022/06/12 13:27:20;;;;;;;2.73;1.67;;;;;;;;;;5056457;28;20218;-43
2022/06/12 13:29:46;;;;;;;3.47;1.50;;;;;;;;;;5053119;28;20540;-43
2022/06/12 13:32:21;;;;;;;2.57;1.53;;;;;;;;;;5048103;28;20684;-43
2022/06/12 13:35:05;;;;;;;2.47;1.80;;;;;;;;;;5050947;28;20288;-42
2022/06/12 13:37:33;;;;;;;1.63;1.53;;;;;;;;;;5051344;28;20279;-43
2022/06/12 13:40:00;;;;;;;3.53;1.40;;;;;;;;;;5050768;28;20192;-43
2022/06/12 13:42:28;;;;;;;2.93;1.23;;;;;;;;;;5048918;28;20716;-43
2022/06/12 13:44:56;;;;;;;2.20;1.40;;;;;;;;;;5050095;28;20178;-43
2022/06/12 13:47:26;;;;;;;1.87;1.50;;;;;;;;;;5047764;28;20193;-42
2022/06/12 13:49:57;;;;;;;2.23;1.70;;;;;;;;;;5048902;28;20894;-43
2022/06/12 13:52:32;;;;;;;2.53;1.60;;;;;;;;;;5057249;28;20209;-43
2022/06/12 13:54:59;;;;;;;5.03;1.70;;;;;;;;;;5054926;28;20900;-43
2022/06/12 13:57:34;;;;;;;1.77;1.67;;;;;;;;;;5051811;28;20536;-43
2022/06/12 14:00:00;;;;;;;1.77;1.57;;;;;;;;;;5047979;28;20182;-43
2022/06/12 14:02:29;;;;;;;4.10;1.60;;;;;;;;;;5050524;28;20710;-43
2022/06/12 14:04:59;;;;;;;1.63;1.47;;;;;;;;;;5046181;28;20197;-43
2022/06/12 14:07:28;;;;;;;4.33;1.50;;;;;;;;;;5050922;28;20504;-43
2022/06/12 14:09:57;;;;;;;2.13;1.40;;;;;;;;;;5050292;28;20810;-43
2022/06/12 14:12:24;;;;;;;2.77;1.57;;;;;;;;;;5052545;28;20240;-43
2022/06/12 14:14:51;;;;;;;2.23;1.70;;;;;;;;;;5046282;28;20475;-44
2022/06/12 14:17:17;;;;;;;1.53;1.30;;;;;;;;;;5053592;28;20582;-44
2022/06/12 14:19:44;;;;;;;2.50;1.40;;;;;;;;;;5048179;28;20661;-43
2022/06/12 14:22:10;;;;;;;2.77;1.40;;;;;;;;;;5043839;28;20718;-44
2022/06/12 14:24:36;;;;;;;1.87;1.50;;;;;;;;;;5051122;28;20436;-43
2022/06/12 14:27:13;;;;;;;1.50;1.40;;;;;;;;;;5048376;28;20185;-43
2022/06/12 14:29:43;;;;;;;3.10;1.50;;;;;;;;;;5046890;28;20655;-44
2022/06/12 14:32:16;;;;;;;2.63;1.60;;;;;;;;;;5049556;28;20202;-43
2022/06/12 14:34:44;;;;;;;3.20;1.40;;;;;;;;;;5045973;28;20792;-44
2022/06/12 14:37:25;;;;;;;2.70;1.40;;;;;;;;;;5042808;28;20262;-44
2022/06/12 14:39:51;;;;;;;3.37;1.37;;;;;;;;;;5046671;28;20650;-44
2022/06/12 14:42:18;;;;;;;1.77;1.47;;;;;;;;;;5047283;28;20578;-42
2022/06/12 14:44:44;;;;;;;2.10;1.50;;;;;;;;;;5040129;28;20189;-44
2022/06/12 14:47:17;;;;;;;2.43;1.60;;;;;;;;;;5047012;28;20179;-44
2022/06/12 14:49:43;;;;;;;2.50;1.40;;;;;;;;;;5041007;28;20844;-43
2022/06/12 14:52:09;;;;;;;1.57;1.47;;;;;;;;;;5041719;28;20208;-43
2022/06/12 14:54:35;;;;;;;2.97;1.27;;;;;;;;;;5045861;28;20326;-43
2022/06/12 14:57:02;;;;;;;1.50;1.40;;;;;;;;;;5040144;28;20924;-42
2022/06/12 14:59:29;;;;;;;1.40;1.23;;;;;;;;;;5042174;28;20480;-43
2022/06/12 15:01:56;;;;;;;1.83;1.33;;;;;;;;;;5047628;28;20591;-43
2022/06/12 15:04:22;;;;;;;1.73;1.40;;;;;;;;;;5044379;28;20600;-43
2022/06/12 15:06:49;;;;;;;1.77;1.30;;;;;;;;;;5045285;28;20990;-43
2022/06/12 15:09:15;;;;;;;2.27;1.50;;;;;;;;;;5048892;28;20185;-43
2022/06/12 15:11:42;;;;;;;2.93;1.50;;;;;;;;;;5042886;28;20205;-43
2022/06/12 15:14:12;;;;;;;2.27;1.50;;;;;;;;;;5046937;28;20185;-44
2022/06/12 15:16:38;;;;;;;1.73;1.40;;;;;;;;;;5049023;28;20254;-44